METAR AND TAF INFORMATION
METAR FOR UAII
ADDS - METARS form results

(2321 UTC 05 July 2020)
Data provider http://aviationweather.gov/metar/data/
 
METAR text: UAII 052300Z 04002MPS 360V090 CAVOK 17/09 Q1006 R10/0///70 NOSIG RMK QFE720/0960
Conditions at: UAII (CIMKENT , KZ) observed 2300 UTC 05 July 2020
Temperature: 17.0°C (63°F)
Dewpoint: 9.0°C (48°F) [RH = 59%]
Pressure (altimeter): 29.70 inches Hg (1006.0 mb)
Winds: from the NE (40 degrees) at 5 MPH (4 knots; 2.1 m/s)
Visibility: 6 or more miles (10+ km)
Ceiling: ceiling and visibility are OK
Clouds: unknown
Weather: no significant weather observed at this time

METAR text: UAII 052230Z VRB01MPS CAVOK 18/09 Q1006 R10/0///70 NOSIG RMK QFE719/0959
Conditions at: UAII (CIMKENT , KZ) observed 2230 UTC 05 July 2020
Temperature: 18.0°C (64°F)
Dewpoint: 9.0°C (48°F) [RH = 56%]
Pressure (altimeter): 29.70 inches Hg (1006.0 mb)
Winds: variable direction winds at 2 MPH (2 knots; 1.0 m/s)
Visibility: 6 or more miles (10+ km)
Ceiling: ceiling and visibility are OK
Clouds: unknown
Weather: no significant weather observed at this time

Forecast for: UAII (CIMKENT , KZ)
Text: TAF UAII 052300Z 0600/0624 35003G08MPS CAVOK TX35/0610Z TN15/0601Z
Forecast period: 0000 UTC 06 July 2020 to 0000 UTC 07 July 2020
Forecast type: FROM: standard forecast or significant change
Winds: from the N (350 degrees) at 7 MPH (6 knots; 3.1 m/s)
gusting to 18 MPH (16 knots; 8.2 m/s)
Visibility: 6 or more miles 10+ km)
Ceiling: unknown
Clouds: missing
Weather: no significant weather forecast for this period
Text: TEMPO 0609/0618 05003G08MPS 8000 SCT050CB
Forecast period: 0900 to 1800 UTC 06 July 2020
Forecast type: TEMPORARY: The following changes expected for less than half the time period
Winds: from the NE (50 degrees) at 7 MPH (6 knots; 3.1 m/s)
gusting to 18 MPH (16 knots; 8.2 m/s)
Visibility: 5 miles (8 km)
Ceiling: at least 12,000 feet AGL
Clouds: scattered clouds at 5000 feet AGL
Weather: no significant weather forecast for this period
Text: TEMPO 0618/0624 12003G08MPS
Forecast period: 1800 UTC 06 July 2020 to 0000 UTC 07 July 2020
Forecast type: TEMPORARY: The following changes expected for less than half the time period
Winds: from the ESE (120 degrees) at 7 MPH (6 knots; 3.1 m/s)
gusting to 18 MPH (16 knots; 8.2 m/s)
Visibility: missing
Ceiling: unknown
Clouds: missing
Weather: no significant weather forecast for this period

 AIRPORT MAP

 RUNWAY INFORMATION

 AIRPORT FREQUENCIES
Type TWR Name TWR Frequency 118.7 MHZ

 AIRPORT NEAR NAVIGATION AIDS
Type NDB Name Shymkent Frequency 360 KHZ
Type NDB Name Shymkent Frequency 360 KHZ



2018 Air Astana Virtual Airline